Rechercher aéroport 
image banner adimage banner adimage banner ad
image banner ad

SSKX - Fazenda São Luíz do Matão Airport

Situé à Carneirinho, Brazil

ICAO - SSKX, IATA -

Données fournies par Airmate  

Information générale

Coordonnées: S11°25'19" W37°19'25"
Élévation : 9 feet MSL.
Variation magnétique : -23° East
Voir autres Aéroports à Sergipe

Données opérationnelles

Special qualification required
Heure actuelle UTC:
Heure actuelle locale:
Météo à : SBAR - Santa Maria ( 56 km )
METAR: SBAR 250000Z 11013KT 9999 SCT033 BKN078 25/19 Q1018
TAF: TAF SBAR 242040Z 2500/2524 14007KT 8000 SCT020 SCT040 TN22/2507Z TX26/2515Z BECMG 2504/2506 6000 RA SCT015 BKN020 BECMG 2510/2512 12012KT 8000 NSW SCT020 BECMG 2515/2517 6000 RA SCT015 BKN020 BECMG 2522/2524 14007KT 8000 NSW SCT015 BKN040 RMK PFV
Voir NOTAMs / SUP AIP / TFR affectant cet aéroport [VIEW]
Fréquences de communication: [VIEW]

Pistes:

Identifiant RWYQFULongueur (ft)Largeur (ft)SurfaceLDA (ft)
13164059DIRT
31164059DIRT

Coordonnées de l'aéroport

Adresse: Carneirinho Brazil

Vue satellite de SSKX